Time;durP1;ratioP1;P1;durP2;ratioP2;P2;SDS_P1;SDS_P2;PMS_P1;PMS_P2;Temp;Humidity;BMP_temperature;BMP_pressure;BME280_temperature;BME280_humidity;BME280_pressure;Samples;Min_cycle;Max_cycle;Signal;HPM_P1;HPM_P2
2023/07/06 00:00:16;;;;;;;3.90;1.40;;;;;;;15.11;100.00;98348.50;15273667;19;20011;-48
2023/07/06 00:05:44;;;;;;;1.90;1.15;;;;;;;15.09;100.00;98351.41;15271304;19;20010;-51
2023/07/06 00:11:09;;;;;;;1.33;1.23;;;;;;;15.05;100.00;98347.41;15269782;19;20015;-54
2023/07/06 00:16:41;;;;;;;1.92;1.20;;;;;;;15.01;100.00;98353.41;15270340;19;20086;-48
2023/07/06 00:22:06;;;;;;;1.40;1.08;;;;;;;14.92;100.00;98352.69;15270571;19;20022;-47
2023/07/06 00:27:31;;;;;;;4.30;1.20;;;;;;;14.84;100.00;98366.34;15268166;19;20081;-50
2023/07/06 00:32:59;;;;;;;2.30;1.25;;;;;;;14.77;100.00;98361.69;15265855;19;20022;-47
2023/07/06 00:38:26;;;;;;;2.08;1.30;;;;;;;14.69;100.00;98361.78;15264492;19;20014;-46
2023/07/06 00:43:59;;;;;;;2.60;1.23;;;;;;;14.63;100.00;98362.53;15265953;19;20019;-49
2023/07/06 00:49:34;;;;;;;3.85;1.25;;;;;;;14.49;100.00;98356.94;15265204;19;20318;-48
2023/07/06 00:55:00;;;;;;;4.38;1.33;;;;;;;14.43;100.00;98360.38;15263916;19;20559;-46
2023/07/06 01:00:25;;;;;;;3.25;1.10;;;;;;;14.38;100.00;98370.09;15257637;19;20021;-77
2023/07/06 01:05:47;;;;;;;1.77;1.02;;;;;;;14.30;100.00;98361.06;15258144;19;20014;-81
2023/07/06 01:11:14;;;;;;;1.67;1.13;;;;;;;14.24;100.00;98360.94;15257570;19;20045;-76
2023/07/06 01:16:42;;;;;;;1.50;0.90;;;;;;;14.21;100.00;98351.34;15255691;19;20014;-80
2023/07/06 01:22:23;;;;;;;2.05;1.10;;;;;;;14.13;100.00;98343.28;15259094;19;20019;-77
2023/07/06 01:28:17;;;;;;;2.40;1.30;;;;;;;14.01;100.00;98356.47;15255178;19;20355;-78
2023/07/06 01:33:52;;;;;;;2.60;1.30;;;;;;;13.82;100.00;98372.19;15251483;19;20492;-77
2023/07/06 01:39:26;;;;;;;1.20;1.05;;;;;;;13.71;100.00;98372.63;15254586;19;20031;-81
2023/07/06 01:44:51;;;;;;;3.40;1.10;;;;;;;13.61;100.00;98375.63;15254666;19;20346;-78
2023/07/06 01:50:21;;;;;;;1.73;1.10;;;;;;;13.53;100.00;98376.50;15255021;19;20026;-80
2023/07/06 01:55:50;;;;;;;2.30;1.30;;;;;;;13.45;100.00;98373.03;15255847;19;20014;-80
2023/07/06 02:01:26;;;;;;;1.73;1.15;;;;;;;13.41;100.00;98377.97;15263083;19;20532;-79
2023/07/06 02:06:56;;;;;;;1.65;1.10;;;;;;;13.37;100.00;98392.84;15268779;19;20035;-77
2023/07/06 02:12:21;;;;;;;1.55;1.02;;;;;;;13.30;100.00;98392.72;15271076;19;20070;-78
2023/07/06 02:17:47;;;;;;;2.13;1.10;;;;;;;13.24;100.00;98385.31;15274973;19;20022;-76
2023/07/06 02:23:17;;;;;;;2.53;1.13;;;;;;;13.17;100.00;98393.31;15283206;19;20020;-75
2023/07/06 02:28:44;;;;;;;2.47;1.08;;;;;;;13.13;100.00;98391.97;15331891;19;20003;-80
2023/07/06 02:34:10;;;;;;;1.60;1.10;;;;;;;13.07;100.00;98388.13;15275543;19;20081;-76
2023/07/06 02:39:37;;;;;;;1.80;1.10;;;;;;;13.04;100.00;98387.63;15261445;19;20015;-79
2023/07/06 02:45:04;;;;;;;1.75;1.02;;;;;;;12.95;100.00;98385.00;15267121;19;20011;-79
2023/07/06 02:50:29;;;;;;;2.75;1.27;;;;;;;12.93;100.00;98387.03;15262759;19;20014;-79
2023/07/06 02:55:58;;;;;;;1.60;1.20;;;;;;;12.87;100.00;98385.03;15263165;19;20022;-76
2023/07/06 03:01:23;;;;;;;2.80;1.15;;;;;;;12.81;100.00;98377.63;15265066;19;20022;-80
2023/07/06 03:06:48;;;;;;;2.22;1.20;;;;;;;12.77;100.00;98376.28;15264411;19;20014;-76
2023/07/06 03:12:16;;;;;;;1.92;1.20;;;;;;;12.75;100.00;98383.75;15261152;19;20011;-75
2023/07/06 03:17:41;;;;;;;2.63;1.17;;;;;;;12.72;100.00;98379.53;15264598;19;20253;-76
2023/07/06 03:23:07;;;;;;;1.50;1.10;;;;;;;12.69;100.00;98385.31;15264051;19;20448;-79
2023/07/06 03:28:34;;;;;;;1.33;1.10;;;;;;;12.71;100.00;98398.63;15262027;19;20090;-80
2023/07/06 03:34:11;;;;;;;1.85;1.10;;;;;;;12.72;100.00;98394.91;15262934;19;20015;-77
2023/07/06 03:39:36;;;;;;;1.30;1.10;;;;;;;12.74;100.00;98393.72;15259216;19;20394;-76
2023/07/06 03:45:05;;;;;;;2.67;1.17;;;;;;;12.77;100.00;98397.91;15259455;19;20018;-75
2023/07/06 03:50:31;;;;;;;2.85;1.27;;;;;;;12.78;100.00;98410.41;15259409;19;20022;-77
2023/07/06 03:55:57;;;;;;;2.85;1.10;;;;;;;12.82;100.00;98411.75;15261714;19;20491;-79
2023/07/06 04:01:24;;;;;;;1.92;1.10;;;;;;;12.83;100.00;98418.84;15262398;19;20022;-78
2023/07/06 04:06:49;;;;;;;3.10;1.20;;;;;;;12.86;100.00;98417.66;15260865;19;20030;-79
2023/07/06 04:12:15;;;;;;;2.08;1.10;;;;;;;12.87;100.00;98425.59;15261670;19;20010;-75
2023/07/06 04:17:43;;;;;;;1.10;0.93;;;;;;;12.91;100.00;98429.63;15261508;19;20513;-77
2023/07/06 04:23:09;;;;;;;3.33;1.20;;;;;;;12.94;100.00;98428.41;15262445;19;20086;-76
2023/07/06 04:28:38;;;;;;;4.05;1.27;;;;;;;13.01;100.00;98437.53;15263909;19;20023;-78
2023/07/06 04:34:05;;;;;;;1.10;1.00;;;;;;;13.05;100.00;98438.00;15261744;19;20546;-77
2023/07/06 04:39:33;;;;;;;2.72;1.00;;;;;;;13.12;100.00;98441.69;15265096;19;20713;-76
2023/07/06 04:44:57;;;;;;;2.80;1.20;;;;;;;13.19;100.00;98433.69;15266877;19;20014;-77
2023/07/06 04:50:31;;;;;;;3.55;1.20;;;;;;;13.27;100.00;98433.69;15257416;19;20046;-79
2023/07/06 04:55:59;;;;;;;2.53;1.10;;;;;;;13.34;100.00;98433.81;15259179;19;20033;-76
2023/07/06 05:01:26;;;;;;;1.58;1.10;;;;;;;13.41;100.00;98432.91;15261826;19;20361;-78
2023/07/06 05:06:55;;;;;;;1.85;1.30;;;;;;;13.52;100.00;98447.91;15255388;19;20030;-76
2023/07/06 05:12:20;;;;;;;2.63;1.20;;;;;;;13.62;100.00;98453.09;15257210;19;20378;-76
2023/07/06 05:17:45;;;;;;;2.00;1.20;;;;;;;13.75;100.00;98470.59;15254609;19;20015;-77
2023/07/06 05:23:15;;;;;;;3.33;1.20;;;;;;;13.90;100.00;98471.47;15258660;19;20018;-77
2023/07/06 05:28:40;;;;;;;3.28;1.27;;;;;;;14.06;100.00;98475.91;15255311;19;20006;-73
2023/07/06 05:34:04;;;;;;;2.70;1.27;;;;;;;14.22;100.00;98483.09;15256910;19;20017;-78
2023/07/06 05:39:32;;;;;;;2.88;1.27;;;;;;;14.40;100.00;98479.19;15272175;19;20586;-75
2023/07/06 05:44:56;;;;;;;2.10;1.27;;;;;;;14.53;100.00;98484.81;15275424;19;20019;-76
2023/07/06 05:50:28;;;;;;;2.35;1.20;;;;;;;14.74;100.00;98485.97;15291681;19;20073;-86
2023/07/06 05:55:56;;;;;;;1.53;1.10;;;;;;;14.92;100.00;98480.16;15303192;19;20860;-83
2023/07/06 06:01:20;;;;;;;2.45;1.10;;;;;;;15.10;100.00;98488.78;15315837;19;20010;-84
2023/07/06 06:06:50;;;;;;;1.95;1.08;;;;;;;15.36;100.00;98500.16;15318460;19;20010;-83
2023/07/06 06:12:20;;;;;;;1.10;0.80;;;;;;;15.60;100.00;98503.56;15316521;19;21194;-88
2023/07/06 06:17:46;;;;;;;1.80;0.80;;;;;;;15.89;100.00;98499.06;15313304;19;20022;-86
2023/07/06 06:23:11;;;;;;;1.30;0.77;;;;;;;16.05;100.00;98509.69;15311364;19;20010;-86
2023/07/06 06:28:39;;;;;;;2.78;0.70;;;;;;;16.24;100.00;98508.19;15322796;19;20478;-86
2023/07/06 06:34:04;;;;;;;1.98;0.95;;;;;;;16.36;100.00;98505.75;15321974;19;20065;-84
2023/07/06 06:39:30;;;;;;;3.83;0.75;;;;;;;16.52;100.00;98504.66;15315346;19;20493;-87
2023/07/06 06:45:00;;;;;;;1.83;0.80;;;;;;;16.63;100.00;98509.53;15317922;19;20023;-85
2023/07/06 06:50:31;;;;;;;1.85;0.85;;;;;;;16.77;100.00;98507.75;15308213;19;20018;-85
2023/07/06 06:55:56;;;;;;;1.02;0.70;;;;;;;16.90;100.00;98504.25;15305354;19;20083;-86
2023/07/06 07:01:25;;;;;;;0.77;0.50;;;;;;;17.09;100.00;98510.06;15305782;19;20530;-86
2023/07/06 07:06:52;;;;;;;1.05;0.70;;;;;;;17.25;100.00;98511.59;15305250;19;20021;-85
2023/07/06 07:12:18;;;;;;;1.38;0.70;;;;;;;17.40;100.00;98506.81;15318906;19;20017;-87
2023/07/06 07:17:51;;;;;;;1.60;0.68;;;;;;;17.58;100.00;98502.72;15365557;19;20334;-85
2023/07/06 07:23:15;;;;;;;3.08;0.70;;;;;;;17.75;100.00;98511.34;15313001;19;20035;-85
2023/07/06 07:28:41;;;;;;;1.77;0.80;;;;;;;17.89;100.00;98509.50;15304186;19;20022;-85
2023/07/06 07:34:09;;;;;;;1.08;0.70;;;;;;;17.99;100.00;98514.56;15306107;19;20017;-86
2023/07/06 07:39:35;;;;;;;1.27;0.63;;;;;;;18.16;100.00;98510.41;15305533;19;20026;-86
2023/07/06 07:45:00;;;;;;;2.90;0.90;;;;;;;18.28;100.00;98504.34;15304609;19;20082;-85
2023/07/06 07:50:27;;;;;;;2.05;0.75;;;;;;;18.38;100.00;98506.63;15306240;19;20473;-85
2023/07/06 07:55:54;;;;;;;1.60;0.80;;;;;;;18.58;100.00;98517.53;15305006;19;20338;-85
2023/07/06 08:01:25;;;;;;;0.95;0.70;;;;;;;18.70;97.89;98526.78;15310940;19;20039;-85
2023/07/06 08:06:45;;;;;;;1.98;0.70;;;;;;;18.89;98.04;98513.28;15309750;19;20095;-86
2023/07/06 08:12:11;;;;;;;2.33;0.70;;;;;;;19.06;94.51;98511.81;15317652;19;20078;-86
2023/07/06 08:17:36;;;;;;;1.20;0.73;;;;;;;19.21;94.30;98521.66;15317967;19;20043;-87
2023/07/06 08:23:07;;;;;;;1.20;0.70;;;;;;;19.16;92.10;98516.00;15305309;19;20018;-87
2023/07/06 08:28:35;;;;;;;3.63;0.80;;;;;;;19.28;99.07;98516.19;15302358;19;20042;-86
2023/07/06 08:34:00;;;;;;;2.55;0.70;;;;;;;19.01;95.31;98517.06;15303907;19;20028;-85
2023/07/06 08:39:33;;;;;;;3.58;0.70;;;;;;;19.16;97.48;98522.31;15304142;19;20021;-86
2023/07/06 08:44:59;;;;;;;1.33;0.80;;;;;;;19.34;88.80;98524.34;15307043;19;20420;-86
2023/07/06 08:50:24;;;;;;;1.90;0.75;;;;;;;19.35;90.96;98511.53;15298788;19;20432;-86
2023/07/06 08:55:52;;;;;;;2.97;0.70;;;;;;;19.50;89.92;98503.03;15300873;19;20022;-86
2023/07/06 09:01:22;;;;;;;1.45;0.70;;;;;;;19.65;89.13;98511.81;15303919;19;20479;-86
2023/07/06 09:06:50;;;;;;;2.38;0.52;;;;;;;19.77;84.52;98511.13;15302109;19;20027;-86
2023/07/06 09:12:24;;;;;;;2.55;0.60;;;;;;;19.95;79.93;98500.28;15297167;19;20015;-86
2023/07/06 09:17:51;;;;;;;1.40;0.70;;;;;;;20.04;75.41;98511.81;15295825;19;20454;-86
2023/07/06 09:23:24;;;;;;;2.28;0.60;;;;;;;20.01;78.00;98504.03;15298160;19;20014;-86
2023/07/06 09:29:17;;;;;;;1.40;0.73;;;;;;;20.14;78.58;98503.13;15294617;19;20473;-86
2023/07/06 09:34:44;;;;;;;1.73;0.70;;;;;;;20.32;73.92;98505.09;15295626;19;20081;-86
2023/07/06 09:40:14;;;;;;;0.73;0.60;;;;;;;20.20;72.88;98504.97;15323156;19;20029;-87
2023/07/06 09:45:42;;;;;;;2.58;0.60;;;;;;;20.14;76.82;98508.59;15294806;19;20014;-86
2023/07/06 09:51:18;;;;;;;1.67;0.68;;;;;;;20.17;72.04;98511.72;15295526;19;20011;-86
2023/07/06 09:56:43;;;;;;;1.17;0.60;;;;;;;20.44;72.31;98499.72;15296805;19;20082;-86
2023/07/06 10:02:27;;;;;;;0.88;0.65;;;;;;;20.96;69.38;98509.59;15309117;19;20045;-86
2023/07/06 10:07:57;;;;;;;3.05;0.70;;;;;;;20.93;70.28;98505.41;15286907;19;20497;-87
2023/07/06 10:13:34;;;;;;;1.77;0.70;;;;;;;20.87;69.66;98506.31;15288718;19;20018;-86
2023/07/06 10:19:13;;;;;;;1.13;0.57;;;;;;;20.79;68.40;98504.69;15285899;19;20078;-86
2023/07/06 10:24:48;;;;;;;1.63;0.60;;;;;;;20.81;68.65;98521.75;15317682;19;20017;-85
2023/07/06 10:30:20;;;;;;;1.60;0.68;;;;;;;21.04;69.28;98522.97;15358000;19;20013;-86
2023/07/06 10:35:52;;;;;;;1.92;0.63;;;;;;;21.14;66.03;98517.00;15300768;19;20014;-85
2023/07/06 10:47:47;;;;;;;1.05;0.60;;;;;;;21.03;66.99;98507.63;15301239;19;20456;-86
2023/07/06 10:53:30;;;;;;;0.60;0.60;;;;;;;21.17;67.03;98506.41;15293811;19;20021;-86
2023/07/06 10:58:58;;;;;;;1.48;0.60;;;;;;;21.51;67.37;98517.81;15295917;19;20018;-85
2023/07/06 11:04:52;;;;;;;1.65;0.55;;;;;;;21.55;62.23;98508.06;15301352;19;20082;-84
2023/07/06 11:10:26;;;;;;;1.13;0.50;;;;;;;21.87;65.45;98512.53;15301081;19;20022;-86
2023/07/06 11:16:05;;;;;;;0.68;0.57;;;;;;;21.97;64.31;98517.44;15313435;19;20011;-86
2023/07/06 11:21:43;;;;;;;4.45;0.73;;;;;;;21.81;61.23;98518.91;15308515;19;20006;-86
2023/07/06 11:27:15;;;;;;;0.68;0.52;;;;;;;22.09;62.24;98518.31;15305336;19;20018;-84
2023/07/06 11:32:55;;;;;;;1.50;0.70;;;;;;;22.00;59.15;98526.00;15299481;19;20098;-84
2023/07/06 11:38:42;;;;;;;1.90;0.60;;;;;;;21.99;59.45;98526.25;15305264;19;20062;-85
2023/07/06 11:44:44;;;;;;;1.08;0.60;;;;;;;22.16;60.71;98524.53;15323902;19;20018;-84
2023/07/06 11:50:22;;;;;;;0.88;0.57;;;;;;;22.40;58.52;98521.81;15322156;19;20018;-84
2023/07/06 11:55:54;;;;;;;3.25;0.70;;;;;;;22.78;58.24;98511.50;15311579;19;20613;-85
2023/07/06 12:01:32;;;;;;;1.48;0.60;;;;;;;22.92;58.49;98514.84;15302671;19;20010;-86
2023/07/06 12:07:00;;;;;;;0.98;0.60;;;;;;;22.99;56.49;98521.03;15313242;19;20362;-87
2023/07/06 12:12:28;;;;;;;1.63;0.65;;;;;;;22.71;56.97;98514.38;15305209;19;20050;-84
2023/07/06 12:17:58;;;;;;;1.45;0.60;;;;;;;22.81;55.44;98515.69;15297924;19;20636;-86
2023/07/06 12:23:24;;;;;;;2.17;0.68;;;;;;;23.20;59.26;98511.38;15301407;19;20013;-86
2023/07/06 12:28:50;;;;;;;1.88;0.70;;;;;;;23.66;55.55;98505.16;15298915;19;20018;-84
2023/07/06 12:34:26;;;;;;;1.17;0.60;;;;;;;23.99;55.71;98507.19;15297582;19;20014;-85
2023/07/06 12:39:52;;;;;;;1.77;0.65;;;;;;;23.80;51.38;98502.97;15298421;19;20078;-86
2023/07/06 12:45:18;;;;;;;4.03;0.70;;;;;;;23.85;52.86;98506.66;15319221;19;20020;-82
2023/07/06 12:50:54;;;;;;;3.47;0.52;;;;;;;24.02;50.61;98502.28;15321310;19;20014;-50
2023/07/06 12:56:22;;;;;;;1.60;0.60;;;;;;;24.13;53.16;98495.88;15268696;19;20010;-50
2023/07/06 13:01:49;;;;;;;1.35;0.70;;;;;;;24.42;53.13;98493.03;15271295;19;20025;-46
2023/07/06 13:07:21;;;;;;;1.08;0.60;;;;;;;24.56;50.93;98499.91;15270515;19;20485;-49
2023/07/06 13:12:54;;;;;;;1.17;0.60;;;;;;;24.84;51.38;98494.56;15267253;19;20014;-49
2023/07/06 13:18:22;;;;;;;2.10;0.65;;;;;;;24.57;49.37;98495.25;15263047;19;20007;-47
2023/07/06 13:23:50;;;;;;;1.42;0.70;;;;;;;24.55;51.04;98486.38;15232451;19;20086;-49
2023/07/06 13:29:17;;;;;;;0.93;0.60;;;;;;;25.15;51.05;98484.78;15236815;19;20021;-47
2023/07/06 13:34:43;;;;;;;2.10;0.90;;;;;;;25.29;50.33;98489.94;15238128;19;20958;-49
2023/07/06 13:40:16;;;;;;;3.33;0.60;;;;;;;25.66;47.40;98484.59;15230436;19;20010;-52
2023/07/06 13:45:47;;;;;;;2.83;0.63;;;;;;;25.55;49.38;98496.63;15237804;19;20021;-51
2023/07/06 13:51:14;;;;;;;5.15;0.70;;;;;;;24.89;45.84;98492.69;15237296;19;20026;-50
2023/07/06 13:56:42;;;;;;;6.43;0.82;;;;;;;24.45;46.79;98490.66;15237549;19;20014;-48
2023/07/06 14:02:08;;;;;;;1.50;0.70;;;;;;;24.50;47.25;98478.88;15250179;19;20779;-52
2023/07/06 14:07:32;;;;;;;1.58;0.70;;;;;;;24.99;47.48;98486.50;15252969;19;20024;-49
2023/07/06 14:12:59;;;;;;;1.25;0.63;;;;;;;25.19;46.19;98483.19;15247686;19;20017;-50
2023/07/06 14:18:26;;;;;;;2.33;0.65;;;;;;;25.41;47.24;98490.66;15247663;19;20024;-51
2023/07/06 14:23:52;;;;;;;0.88;0.50;;;;;;;25.16;46.90;98497.50;15246042;19;20106;-52
2023/07/06 14:29:20;;;;;;;0.98;0.70;;;;;;;25.20;46.82;98493.16;15245222;19;20023;-51
2023/07/06 14:34:44;;;;;;;0.80;0.60;;;;;;;25.62;45.97;98486.25;15250537;19;20014;-48
2023/07/06 14:40:09;;;;;;;1.27;0.60;;;;;;;25.91;45.81;98485.16;15249220;19;20014;-48
2023/07/06 14:45:38;;;;;;;0.98;0.70;;;;;;;26.43;43.11;98498.34;15250285;19;20014;-51
2023/07/06 14:51:12;;;;;;;1.45;0.70;;;;;;;26.99;44.59;98499.06;15249293;19;20258;-50
2023/07/06 14:56:38;;;;;;;1.67;0.60;;;;;;;26.37;42.42;98496.66;15239896;19;20038;-50
2023/07/06 15:02:06;;;;;;;0.85;0.52;;;;;;;25.79;43.96;98494.41;15248016;19;20655;-50
2023/07/06 15:07:32;;;;;;;1.23;0.75;;;;;;;25.33;46.21;98508.47;15245833;19;20019;-51
2023/07/06 15:12:57;;;;;;;1.00;0.60;;;;;;;25.04;47.06;98503.13;15244525;19;20035;-45
2023/07/06 15:18:25;;;;;;;1.00;0.60;;;;;;;24.99;47.39;98502.22;15243018;19;20684;-48
2023/07/06 15:23:52;;;;;;;4.30;0.80;;;;;;;25.19;47.18;98496.13;15242445;19;20018;-46
2023/07/06 15:29:17;;;;;;;1.13;0.77;;;;;;;24.85;45.82;98497.06;15242765;19;21167;-52
2023/07/06 15:34:45;;;;;;;1.10;0.70;;;;;;;24.72;47.35;98480.88;15242411;19;20051;-50
2023/07/06 15:40:19;;;;;;;1.15;0.65;;;;;;;24.42;47.63;98487.53;15242577;19;20519;-49
2023/07/06 15:45:45;;;;;;;2.15;0.77;;;;;;;24.26;47.38;98490.06;15245891;19;20024;-47
2023/07/06 15:51:12;;;;;;;2.60;0.60;;;;;;;24.59;46.53;98488.38;15244087;19;20464;-48
2023/07/06 15:56:40;;;;;;;2.20;0.77;;;;;;;24.69;47.28;98487.75;15242543;19;20018;-47
2023/07/06 16:02:05;;;;;;;1.73;0.80;;;;;;;24.56;47.61;98491.63;15241854;19;20022;-49
2023/07/06 16:07:32;;;;;;;1.67;0.60;;;;;;;24.31;47.83;98492.88;15243559;19;20025;-49
2023/07/06 16:12:58;;;;;;;1.35;0.50;;;;;;;24.08;48.57;98488.38;15243134;19;20047;-48
2023/07/06 16:18:23;;;;;;;0.82;0.68;;;;;;;24.47;48.91;98484.88;15244874;19;20015;-49
2023/07/06 16:23:51;;;;;;;2.53;0.70;;;;;;;24.90;46.83;98480.59;15242136;19;20500;-50
2023/07/06 16:29:16;;;;;;;1.50;0.75;;;;;;;25.26;47.11;98484.91;15247696;19;20036;-50
2023/07/06 16:34:34;;;;;;;6.38;0.95;;;;;;;25.60;47.03;98484.81;15241353;19;20010;-51
2023/07/06 16:40:01;;;;;;;2.22;0.70;;;;;;;25.75;45.58;98482.22;15243294;19;20536;-51
2023/07/06 16:45:26;;;;;;;3.03;0.60;;;;;;;25.96;46.24;98487.94;15245791;19;20011;-51
2023/07/06 16:50:57;;;;;;;1.27;0.70;;;;;;;25.78;45.18;98483.63;15242001;19;20019;-52
2023/07/06 16:56:24;;;;;;;0.82;0.52;;;;;;;25.63;46.25;98489.81;15242189;19;20027;-50
2023/07/06 17:01:51;;;;;;;0.60;0.52;;;;;;;25.45;46.56;98494.59;15242322;19;20014;-48
2023/07/06 17:07:16;;;;;;;0.90;0.52;;;;;;;25.48;47.16;98494.06;15239800;19;20098;-51
2023/07/06 17:12:43;;;;;;;0.82;0.52;;;;;;;25.34;46.67;98495.53;15241276;19;20025;-51
2023/07/06 17:18:08;;;;;;;1.25;0.75;;;;;;;25.16;47.78;98505.75;15242111;19;20014;-47
2023/07/06 17:23:33;;;;;;;1.35;0.50;;;;;;;24.99;48.83;98504.97;15239834;19;20020;-47
2023/07/06 17:29:01;;;;;;;2.88;0.60;;;;;;;25.27;48.85;98503.97;15242897;19;20066;-48
2023/07/06 17:34:26;;;;;;;2.15;0.70;;;;;;;25.24;47.07;98504.50;15242588;19;20396;-49
2023/07/06 17:39:45;;;;;;;2.88;0.60;;;;;;;25.24;46.99;98510.81;15238166;19;20022;-47
2023/07/06 17:45:16;;;;;;;4.68;0.70;;;;;;;25.57;48.34;98512.94;15240069;19;20368;-51
2023/07/06 17:50:41;;;;;;;3.80;0.70;;;;;;;25.95;48.53;98508.38;15238074;19;20014;-51
2023/07/06 17:56:07;;;;;;;1.77;0.77;;;;;;;25.92;49.17;98522.72;15240306;19;20010;-51
2023/07/06 18:01:34;;;;;;;5.03;0.70;;;;;;;25.65;47.91;98518.81;15237377;19;20031;-50
2023/07/06 18:06:59;;;;;;;4.63;0.80;;;;;;;25.70;48.67;98520.78;15242237;19;20035;-51
2023/07/06 18:12:24;;;;;;;0.88;0.50;;;;;;;25.68;48.48;98528.50;15235404;19;20030;-49
2023/07/06 18:17:52;;;;;;;3.08;0.80;;;;;;;25.64;47.85;98530.09;15239664;19;20022;-50
2023/07/06 18:23:17;;;;;;;1.77;0.70;;;;;;;25.53;47.92;98532.75;15237176;19;20389;-52
2023/07/06 18:28:43;;;;;;;2.33;0.80;;;;;;;25.34;48.17;98532.19;15246827;19;20115;-53
2023/07/06 18:34:15;;;;;;;3.47;0.63;;;;;;;25.07;47.88;98537.63;15237383;19;20785;-48
2023/07/06 18:39:42;;;;;;;2.55;0.60;;;;;;;24.71;48.84;98539.81;15236642;19;20015;-49
2023/07/06 18:45:09;;;;;;;8.77;1.13;;;;;;;24.23;49.04;98547.50;15244915;19;20018;-50
2023/07/06 18:50:57;;;;;;;2.55;1.00;;;;;;;23.75;50.36;98558.72;15250410;19;20026;-50
2023/07/06 18:56:22;;;;;;;1.25;0.80;;;;;;;23.39;52.19;98564.28;15249259;19;20021;-51
2023/07/06 19:01:47;;;;;;;1.67;0.80;;;;;;;23.07;52.91;98572.06;15251110;19;20378;-50
2023/07/06 19:07:15;;;;;;;3.80;1.00;;;;;;;22.73;54.30;98571.81;15253150;19;20032;-49
2023/07/06 19:12:48;;;;;;;7.55;1.17;;;;;;;22.38;55.24;98573.41;15250750;19;20016;-53
2023/07/06 19:18:15;;;;;;;2.70;0.70;;;;;;;22.05;55.62;98580.19;15252614;19;20002;-49
2023/07/06 19:23:43;;;;;;;2.63;0.70;;;;;;;21.82;56.71;98584.50;15243314;19;20688;-50
2023/07/06 19:29:08;;;;;;;2.17;0.80;;;;;;;21.57;57.13;98590.06;15246375;19;20413;-49
2023/07/06 19:34:33;;;;;;;2.80;0.77;;;;;;;21.35;57.52;98606.09;15252128;19;20035;-52
2023/07/06 19:40:01;;;;;;;4.85;1.15;;;;;;;21.11;59.52;98611.41;15245504;19;20024;-51
2023/07/06 19:45:27;;;;;;;4.35;1.00;;;;;;;20.91;59.50;98615.16;15241889;19;20990;-49
2023/07/06 19:50:56;;;;;;;8.38;1.20;;;;;;;20.63;61.47;98627.38;15245496;19;20416;-46
2023/07/06 19:56:32;;;;;;;4.45;1.10;;;;;;;20.39;61.28;98623.53;15272297;19;20014;-48
2023/07/06 20:01:56;;;;;;;11.07;1.20;;;;;;;20.21;62.61;98624.28;15252025;19;20029;-48
2023/07/06 20:07:21;;;;;;;14.98;1.50;;;;;;;19.90;64.24;98638.72;15276345;19;20010;-48
2023/07/06 20:12:48;;;;;;;22.13;1.90;;;;;;;19.64;66.49;98644.03;15273618;19;20038;-48
2023/07/06 20:18:13;;;;;;;11.30;1.40;;;;;;;19.45;66.27;98653.16;15272414;19;20453;-50
2023/07/06 20:23:38;;;;;;;5.25;1.00;;;;;;;19.35;67.74;98642.66;15266119;19;20018;-46
2023/07/06 20:29:06;;;;;;;4.43;1.00;;;;;;;19.29;67.74;98659.88;15276422;19;20015;-50
2023/07/06 20:34:32;;;;;;;1.08;0.70;;;;;;;19.21;70.54;98650.84;15276260;19;20021;-48
2023/07/06 20:39:56;;;;;;;4.28;0.80;;;;;;;19.14;71.47;98657.38;15269448;19;20638;-47
2023/07/06 20:45:24;;;;;;;4.60;0.80;;;;;;;18.91;77.27;98658.59;15272323;19;20766;-51
2023/07/06 20:50:52;;;;;;;4.53;0.80;;;;;;;18.75;78.31;98666.19;15270032;19;20018;-46
2023/07/06 20:56:17;;;;;;;2.25;0.80;;;;;;;18.62;82.90;98677.91;15273152;19;20033;-48
2023/07/06 21:01:44;;;;;;;4.80;1.00;;;;;;;18.48;85.15;98673.47;15269278;19;20363;-45
2023/07/06 21:07:10;;;;;;;3.60;0.60;;;;;;;18.32;90.15;98682.88;15267521;19;20019;-49
2023/07/06 21:12:35;;;;;;;3.35;0.80;;;;;;;18.18;92.08;98688.28;15267899;19;20027;-47
2023/07/06 21:18:02;;;;;;;2.60;0.77;;;;;;;18.06;98.61;98702.69;15267295;19;20057;-46
2023/07/06 21:23:27;;;;;;;3.33;0.80;;;;;;;17.94;98.61;98707.84;15263173;19;20010;-46
2023/07/06 21:28:53;;;;;;;1.70;0.80;;;;;;;17.83;100.00;98701.09;15267723;19;20043;-51
2023/07/06 21:34:23;;;;;;;0.98;0.73;;;;;;;17.72;100.00;98716.13;15266558;19;20694;-47
2023/07/06 21:39:48;;;;;;;1.17;0.73;;;;;;;17.65;100.00;98717.97;15263159;19;20007;-49
2023/07/06 21:45:13;;;;;;;2.95;0.90;;;;;;;17.54;100.00;98720.22;15268627;19;20031;-50
2023/07/06 21:50:41;;;;;;;2.55;0.80;;;;;;;17.50;100.00;98726.25;15266388;19;20054;-50
2023/07/06 21:56:08;;;;;;;4.78;0.90;;;;;;;17.36;100.00;98728.88;15266127;19;20010;-48
2023/07/06 22:01:33;;;;;;;2.10;0.80;;;;;;;17.19;100.00;98733.78;15266662;19;20089;-49
2023/07/06 22:07:00;;;;;;;1.45;1.00;;;;;;;16.99;100.00;98733.59;15268879;19;20074;-47
2023/07/06 22:12:25;;;;;;;2.35;0.90;;;;;;;16.81;100.00;98735.91;15263924;19;20410;-48
2023/07/06 22:17:49;;;;;;;2.13;0.88;;;;;;;16.62;100.00;98739.06;15273199;19;20037;-47
2023/07/06 22:23:16;;;;;;;3.17;0.80;;;;;;;16.50;100.00;98735.16;15279821;19;20011;-45
2023/07/06 22:28:42;;;;;;;3.70;0.75;;;;;;;16.36;100.00;98755.06;15279448;19;20032;-48
2023/07/06 22:34:07;;;;;;;5.38;0.90;;;;;;;16.24;100.00;98752.84;15278372;19;20011;-47
2023/07/06 22:39:35;;;;;;;1.58;0.70;;;;;;;16.10;100.00;98751.84;15279783;19;20115;-49
2023/07/06 22:45:00;;;;;;;1.40;0.70;;;;;;;15.99;100.00;98750.44;15281339;19;20007;-47
2023/07/06 22:50:25;;;;;;;1.35;0.77;;;;;;;15.89;100.00;98755.31;15281239;19;20017;-49
2023/07/06 22:55:54;;;;;;;1.70;0.70;;;;;;;15.81;100.00;98760.81;15281669;19;20017;-50
2023/07/06 23:01:24;;;;;;;2.83;0.95;;;;;;;15.69;100.00;98758.56;15273693;19;20380;-50
2023/07/06 23:06:49;;;;;;;2.00;0.80;;;;;;;15.62;100.00;98757.59;15282779;19;20018;-48
2023/07/06 23:12:17;;;;;;;1.35;0.80;;;;;;;15.51;100.00;98755.34;15280464;19;20015;-48
2023/07/06 23:17:43;;;;;;;3.10;0.80;;;;;;;15.43;100.00;98755.44;15284613;19;20021;-45
2023/07/06 23:23:07;;;;;;;1.98;1.00;;;;;;;15.31;100.00;98753.16;15271979;19;20363;-46
2023/07/06 23:28:35;;;;;;;2.00;0.93;;;;;;;15.21;100.00;98752.56;15274380;19;20035;-48
2023/07/06 23:34:02;;;;;;;1.40;0.90;;;;;;;15.08;100.00;98764.03;15267991;19;20017;-45
2023/07/06 23:39:27;;;;;;;0.90;0.80;;;;;;;14.99;100.00;98767.84;15272179;19;20074;-45
2023/07/06 23:44:54;;;;;;;2.83;1.10;;;;;;;14.89;100.00;98759.94;15274253;19;20017;-49
2023/07/06 23:50:20;;;;;;;1.88;0.98;;;;;;;14.78;100.00;98763.94;15273379;19;20014;-48
2023/07/06 23:55:51;;;;;;;2.38;1.00;;;;;;;14.67;100.00;98762.47;15271787;19;20023;-48
